sensor_id;sensor_type;location;lat;lon;timestamp;P1;durP1;ratioP1;P2;durP2;ratioP2
75169;SDS011;63749;49.186;9.222;2023-07-29T00:00:19;14.05;;;8.50;;
75169;SDS011;63749;49.186;9.222;2023-07-29T00:02:45;11.02;;;7.07;;
75169;SDS011;63749;49.186;9.222;2023-07-29T00:05:10;10.70;;;6.87;;
75169;SDS011;63749;49.186;9.222;2023-07-29T00:07:36;11.45;;;7.03;;
75169;SDS011;63749;49.186;9.222;2023-07-29T00:10:01;13.77;;;7.60;;
75169;SDS011;63749;49.186;9.222;2023-07-29T00:12:28;10.57;;;6.20;;
75169;SDS011;63749;49.186;9.222;2023-07-29T00:14:53;9.23;;;6.50;;
75169;SDS011;63749;49.186;9.222;2023-07-29T00:17:19;10.13;;;6.83;;
75169;SDS011;63749;49.186;9.222;2023-07-29T00:19:45;9.87;;;6.77;;
75169;SDS011;63749;49.186;9.222;2023-07-29T00:22:10;10.45;;;6.50;;
75169;SDS011;63749;49.186;9.222;2023-07-29T00:24:36;11.07;;;6.40;;
75169;SDS011;63749;49.186;9.222;2023-07-29T00:27:01;10.37;;;5.97;;
75169;SDS011;63749;49.186;9.222;2023-07-29T00:29:26;9.23;;;6.00;;
75169;SDS011;63749;49.186;9.222;2023-07-29T00:31:52;12.87;;;7.40;;
75169;SDS011;63749;49.186;9.222;2023-07-29T00:34:17;10.05;;;6.20;;
75169;SDS011;63749;49.186;9.222;2023-07-29T00:36:44;7.80;;;5.47;;
75169;SDS011;63749;49.186;9.222;2023-07-29T00:39:10;7.78;;;5.07;;
75169;SDS011;63749;49.186;9.222;2023-07-29T00:41:36;6.93;;;5.00;;
75169;SDS011;63749;49.186;9.222;2023-07-29T00:44:01;10.65;;;5.28;;
75169;SDS011;63749;49.186;9.222;2023-07-29T00:46:27;7.97;;;5.03;;
75169;SDS011;63749;49.186;9.222;2023-07-29T00:48:53;7.25;;;4.90;;
75169;SDS011;63749;49.186;9.222;2023-07-29T00:51:19;7.77;;;5.10;;
75169;SDS011;63749;49.186;9.222;2023-07-29T00:53:44;8.33;;;5.40;;
75169;SDS011;63749;49.186;9.222;2023-07-29T00:56:10;7.77;;;5.17;;
75169;SDS011;63749;49.186;9.222;2023-07-29T00:58:35;8.95;;;4.93;;
75169;SDS011;63749;49.186;9.222;2023-07-29T01:01:01;8.27;;;5.23;;
75169;SDS011;63749;49.186;9.222;2023-07-29T01:03:26;7.67;;;5.00;;
75169;SDS011;63749;49.186;9.222;2023-07-29T01:08:21;8.45;;;5.28;;
75169;SDS011;63749;49.186;9.222;2023-07-29T01:11:13;9.25;;;5.25;;
75169;SDS011;63749;49.186;9.222;2023-07-29T01:13:57;7.60;;;4.73;;
75169;SDS011;63749;49.186;9.222;2023-07-29T01:16:41;8.32;;;4.80;;
75169;SDS011;63749;49.186;9.222;2023-07-29T01:19:12;7.97;;;5.13;;
75169;SDS011;63749;49.186;9.222;2023-07-29T01:21:52;6.50;;;4.20;;
75169;SDS011;63749;49.186;9.222;2023-07-29T01:24:19;7.25;;;4.93;;
75169;SDS011;63749;49.186;9.222;2023-07-29T01:26:45;7.00;;;4.13;;
75169;SDS011;63749;49.186;9.222;2023-07-29T01:29:10;5.30;;;3.80;;
75169;SDS011;63749;49.186;9.222;2023-07-29T01:31:38;7.23;;;4.17;;
75169;SDS011;63749;49.186;9.222;2023-07-29T01:34:11;7.72;;;4.20;;
75169;SDS011;63749;49.186;9.222;2023-07-29T01:36:42;4.97;;;3.90;;
75169;SDS011;63749;49.186;9.222;2023-07-29T01:39:10;5.40;;;3.90;;
75169;SDS011;63749;49.186;9.222;2023-07-29T01:41:37;5.15;;;3.83;;
75169;SDS011;63749;49.186;9.222;2023-07-29T01:44:03;9.60;;;4.25;;
75169;SDS011;63749;49.186;9.222;2023-07-29T01:46:29;6.78;;;4.10;;
75169;SDS011;63749;49.186;9.222;2023-07-29T01:48:54;5.83;;;3.87;;
75169;SDS011;63749;49.186;9.222;2023-07-29T01:51:19;7.93;;;4.87;;
75169;SDS011;63749;49.186;9.222;2023-07-29T01:53:46;7.57;;;4.18;;
75169;SDS011;63749;49.186;9.222;2023-07-29T01:56:11;7.67;;;4.83;;
75169;SDS011;63749;49.186;9.222;2023-07-29T01:58:37;6.07;;;4.00;;
75169;SDS011;63749;49.186;9.222;2023-07-29T02:01:02;6.23;;;4.10;;
75169;SDS011;63749;49.186;9.222;2023-07-29T02:03:27;5.47;;;3.70;;
75169;SDS011;63749;49.186;9.222;2023-07-29T02:05:53;5.37;;;3.33;;
75169;SDS011;63749;49.186;9.222;2023-07-29T02:08:18;4.43;;;3.10;;
75169;SDS011;63749;49.186;9.222;2023-07-29T02:10:43;6.07;;;2.50;;
75169;SDS011;63749;49.186;9.222;2023-07-29T02:13:10;5.00;;;2.53;;
75169;SDS011;63749;49.186;9.222;2023-07-29T02:15:35;6.20;;;2.90;;
75169;SDS011;63749;49.186;9.222;2023-07-29T02:18:00;4.60;;;2.60;;
75169;SDS011;63749;49.186;9.222;2023-07-29T02:20:27;6.15;;;2.50;;
75169;SDS011;63749;49.186;9.222;2023-07-29T02:22:52;7.20;;;3.67;;
75169;SDS011;63749;49.186;9.222;2023-07-29T02:25:17;7.07;;;2.42;;
75169;SDS011;63749;49.186;9.222;2023-07-29T02:27:43;4.37;;;2.17;;
75169;SDS011;63749;49.186;9.222;2023-07-29T02:30:08;2.80;;;1.93;;
75169;SDS011;63749;49.186;9.222;2023-07-29T02:32:37;3.72;;;2.40;;
75169;SDS011;63749;49.186;9.222;2023-07-29T02:35:03;3.00;;;2.10;;
75169;SDS011;63749;49.186;9.222;2023-07-29T02:37:29;4.65;;;2.30;;
75169;SDS011;63749;49.186;9.222;2023-07-29T02:39:55;4.43;;;2.00;;
75169;SDS011;63749;49.186;9.222;2023-07-29T02:42:20;5.13;;;2.00;;
75169;SDS011;63749;49.186;9.222;2023-07-29T02:44:46;4.27;;;2.10;;
75169;SDS011;63749;49.186;9.222;2023-07-29T02:47:11;2.93;;;2.20;;
75169;SDS011;63749;49.186;9.222;2023-07-29T02:49:37;4.40;;;2.00;;
75169;SDS011;63749;49.186;9.222;2023-07-29T02:52:02;4.80;;;2.00;;
75169;SDS011;63749;49.186;9.222;2023-07-29T02:54:27;2.83;;;2.03;;
75169;SDS011;63749;49.186;9.222;2023-07-29T02:56:53;5.80;;;2.50;;
75169;SDS011;63749;49.186;9.222;2023-07-29T02:59:18;3.33;;;1.87;;
75169;SDS011;63749;49.186;9.222;2023-07-29T03:01:44;2.60;;;2.00;;
75169;SDS011;63749;49.186;9.222;2023-07-29T03:04:10;3.15;;;2.00;;
75169;SDS011;63749;49.186;9.222;2023-07-29T03:06:38;3.70;;;1.90;;
75169;SDS011;63749;49.186;9.222;2023-07-29T03:09:03;4.20;;;2.00;;
75169;SDS011;63749;49.186;9.222;2023-07-29T03:11:28;6.33;;;2.90;;
75169;SDS011;63749;49.186;9.222;2023-07-29T03:13:54;2.63;;;1.80;;
75169;SDS011;63749;49.186;9.222;2023-07-29T03:16:19;3.07;;;1.80;;
75169;SDS011;63749;49.186;9.222;2023-07-29T03:18:44;2.50;;;1.70;;
75169;SDS011;63749;49.186;9.222;2023-07-29T03:21:10;2.20;;;1.60;;
75169;SDS011;63749;49.186;9.222;2023-07-29T03:23:36;3.73;;;1.90;;
75169;SDS011;63749;49.186;9.222;2023-07-29T03:26:03;2.50;;;1.90;;
75169;SDS011;63749;49.186;9.222;2023-07-29T03:28:41;3.42;;;1.80;;
75169;SDS011;63749;49.186;9.222;2023-07-29T03:31:07;3.10;;;1.80;;
75169;SDS011;63749;49.186;9.222;2023-07-29T03:33:33;3.33;;;1.67;;
75169;SDS011;63749;49.186;9.222;2023-07-29T03:35:58;5.22;;;1.70;;
75169;SDS011;63749;49.186;9.222;2023-07-29T03:38:23;4.03;;;2.13;;
75169;SDS011;63749;49.186;9.222;2023-07-29T03:40:50;2.90;;;1.80;;
75169;SDS011;63749;49.186;9.222;2023-07-29T03:43:15;2.90;;;1.80;;
75169;SDS011;63749;49.186;9.222;2023-07-29T03:45:41;3.83;;;1.80;;
75169;SDS011;63749;49.186;9.222;2023-07-29T03:48:06;2.70;;;1.73;;
75169;SDS011;63749;49.186;9.222;2023-07-29T03:50:33;3.70;;;1.80;;
75169;SDS011;63749;49.186;9.222;2023-07-29T03:53:00;4.38;;;1.95;;
75169;SDS011;63749;49.186;9.222;2023-07-29T03:55:26;2.80;;;1.80;;
75169;SDS011;63749;49.186;9.222;2023-07-29T03:57:52;2.93;;;1.87;;
75169;SDS011;63749;49.186;9.222;2023-07-29T04:00:17;3.90;;;2.10;;
75169;SDS011;63749;49.186;9.222;2023-07-29T04:02:43;3.90;;;2.10;;
75169;SDS011;63749;49.186;9.222;2023-07-29T04:05:10;2.97;;;1.90;;
75169;SDS011;63749;49.186;9.222;2023-07-29T04:07:35;4.63;;;2.40;;
75169;SDS011;63749;49.186;9.222;2023-07-29T04:10:01;3.58;;;2.20;;
75169;SDS011;63749;49.186;9.222;2023-07-29T04:12:27;4.53;;;1.98;;
75169;SDS011;63749;49.186;9.222;2023-07-29T04:14:53;4.23;;;2.10;;
75169;SDS011;63749;49.186;9.222;2023-07-29T04:17:18;5.13;;;2.07;;
75169;SDS011;63749;49.186;9.222;2023-07-29T04:19:43;3.20;;;1.90;;
75169;SDS011;63749;49.186;9.222;2023-07-29T04:22:09;2.70;;;2.00;;
75169;SDS011;63749;49.186;9.222;2023-07-29T04:24:34;2.37;;;1.80;;
75169;SDS011;63749;49.186;9.222;2023-07-29T04:27:00;3.27;;;2.10;;
75169;SDS011;63749;49.186;9.222;2023-07-29T04:29:25;2.50;;;1.90;;
75169;SDS011;63749;49.186;9.222;2023-07-29T04:31:50;2.80;;;2.00;;
75169;SDS011;63749;49.186;9.222;2023-07-29T04:34:17;3.42;;;2.20;;
75169;SDS011;63749;49.186;9.222;2023-07-29T04:36:42;3.00;;;2.10;;
75169;SDS011;63749;49.186;9.222;2023-07-29T04:39:08;4.97;;;2.28;;
75169;SDS011;63749;49.186;9.222;2023-07-29T04:41:34;2.93;;;2.10;;
75169;SDS011;63749;49.186;9.222;2023-07-29T04:43:59;3.97;;;2.40;;
75169;SDS011;63749;49.186;9.222;2023-07-29T04:46:24;5.55;;;2.10;;
75169;SDS011;63749;49.186;9.222;2023-07-29T04:48:50;5.27;;;2.20;;
75169;SDS011;63749;49.186;9.222;2023-07-29T04:51:15;7.30;;;2.27;;
75169;SDS011;63749;49.186;9.222;2023-07-29T04:53:40;5.63;;;2.40;;
75169;SDS011;63749;49.186;9.222;2023-07-29T04:56:06;4.23;;;2.40;;
75169;SDS011;63749;49.186;9.222;2023-07-29T04:58:31;4.90;;;2.57;;
75169;SDS011;63749;49.186;9.222;2023-07-29T05:00:59;4.70;;;2.67;;
75169;SDS011;63749;49.186;9.222;2023-07-29T05:03:25;5.43;;;2.40;;
75169;SDS011;63749;49.186;9.222;2023-07-29T05:05:51;4.25;;;2.50;;
75169;SDS011;63749;49.186;9.222;2023-07-29T05:08:18;7.40;;;2.22;;
75169;SDS011;63749;49.186;9.222;2023-07-29T05:10:43;5.20;;;2.40;;
75169;SDS011;63749;49.186;9.222;2023-07-29T05:13:09;4.73;;;2.50;;
75169;SDS011;63749;49.186;9.222;2023-07-29T05:15:34;3.73;;;2.40;;
75169;SDS011;63749;49.186;9.222;2023-07-29T05:17:59;4.88;;;2.50;;
75169;SDS011;63749;49.186;9.222;2023-07-29T05:20:25;5.33;;;2.77;;
75169;SDS011;63749;49.186;9.222;2023-07-29T05:22:50;9.87;;;3.33;;
75169;SDS011;63749;49.186;9.222;2023-07-29T05:25:15;8.93;;;3.17;;
75169;SDS011;63749;49.186;9.222;2023-07-29T05:27:41;5.63;;;3.33;;
75169;SDS011;63749;49.186;9.222;2023-07-29T05:30:06;5.60;;;3.07;;
75169;SDS011;63749;49.186;9.222;2023-07-29T05:32:32;7.55;;;3.13;;
75169;SDS011;63749;49.186;9.222;2023-07-29T05:34:58;9.03;;;3.40;;
75169;SDS011;63749;49.186;9.222;2023-07-29T05:37:23;11.17;;;3.20;;
75169;SDS011;63749;49.186;9.222;2023-07-29T05:39:48;6.53;;;3.33;;
75169;SDS011;63749;49.186;9.222;2023-07-29T05:42:14;6.93;;;3.37;;
75169;SDS011;63749;49.186;9.222;2023-07-29T05:44:39;7.23;;;3.43;;
75169;SDS011;63749;49.186;9.222;2023-07-29T05:47:04;4.80;;;3.00;;
75169;SDS011;63749;49.186;9.222;2023-07-29T05:49:30;8.93;;;3.20;;
75169;SDS011;63749;49.186;9.222;2023-07-29T05:51:55;7.07;;;3.08;;
75169;SDS011;63749;49.186;9.222;2023-07-29T05:54:21;6.23;;;2.70;;
75169;SDS011;63749;49.186;9.222;2023-07-29T05:56:46;5.00;;;2.67;;
75169;SDS011;63749;49.186;9.222;2023-07-29T05:59:11;7.83;;;2.50;;
75169;SDS011;63749;49.186;9.222;2023-07-29T06:01:37;5.57;;;2.50;;
75169;SDS011;63749;49.186;9.222;2023-07-29T06:04:02;5.50;;;2.80;;
75169;SDS011;63749;49.186;9.222;2023-07-29T06:06:27;5.77;;;3.20;;
75169;SDS011;63749;49.186;9.222;2023-07-29T06:08:53;7.90;;;3.30;;
75169;SDS011;63749;49.186;9.222;2023-07-29T06:11:18;6.93;;;3.17;;
75169;SDS011;63749;49.186;9.222;2023-07-29T06:13:44;6.75;;;3.40;;
75169;SDS011;63749;49.186;9.222;2023-07-29T06:16:09;6.60;;;3.27;;
75169;SDS011;63749;49.186;9.222;2023-07-29T06:18:34;5.70;;;3.10;;
75169;SDS011;63749;49.186;9.222;2023-07-29T06:21:00;7.63;;;2.63;;
75169;SDS011;63749;49.186;9.222;2023-07-29T06:23:25;4.43;;;2.70;;
75169;SDS011;63749;49.186;9.222;2023-07-29T06:25:50;6.67;;;3.10;;
75169;SDS011;63749;49.186;9.222;2023-07-29T06:28:16;4.50;;;2.40;;
75169;SDS011;63749;49.186;9.222;2023-07-29T06:30:41;4.93;;;2.30;;
75169;SDS011;63749;49.186;9.222;2023-07-29T06:33:06;8.60;;;2.47;;
75169;SDS011;63749;49.186;9.222;2023-07-29T06:35:32;3.87;;;2.60;;
75169;SDS011;63749;49.186;9.222;2023-07-29T06:37:57;4.43;;;2.47;;
75169;SDS011;63749;49.186;9.222;2023-07-29T06:40:22;6.93;;;2.80;;
75169;SDS011;63749;49.186;9.222;2023-07-29T06:42:48;6.20;;;2.80;;
75169;SDS011;63749;49.186;9.222;2023-07-29T06:45:13;7.33;;;2.50;;
75169;SDS011;63749;49.186;9.222;2023-07-29T06:47:40;5.18;;;2.70;;
75169;SDS011;63749;49.186;9.222;2023-07-29T06:50:05;4.03;;;2.50;;
75169;SDS011;63749;49.186;9.222;2023-07-29T06:52:31;4.43;;;2.40;;
75169;SDS011;63749;49.186;9.222;2023-07-29T06:54:56;5.10;;;2.30;;
75169;SDS011;63749;49.186;9.222;2023-07-29T06:57:22;4.47;;;2.50;;
75169;SDS011;63749;49.186;9.222;2023-07-29T06:59:47;5.17;;;2.43;;
75169;SDS011;63749;49.186;9.222;2023-07-29T07:02:12;5.40;;;2.60;;
75169;SDS011;63749;49.186;9.222;2023-07-29T07:04:38;4.40;;;2.70;;
75169;SDS011;63749;49.186;9.222;2023-07-29T07:07:03;6.87;;;2.90;;
75169;SDS011;63749;49.186;9.222;2023-07-29T07:09:29;4.43;;;2.47;;
75169;SDS011;63749;49.186;9.222;2023-07-29T07:11:54;5.10;;;2.63;;
75169;SDS011;63749;49.186;9.222;2023-07-29T07:14:19;7.32;;;2.67;;
75169;SDS011;63749;49.186;9.222;2023-07-29T07:16:45;6.37;;;2.60;;
75169;SDS011;63749;49.186;9.222;2023-07-29T07:19:10;5.07;;;2.20;;
75169;SDS011;63749;49.186;9.222;2023-07-29T07:21:36;4.00;;;2.60;;
75169;SDS011;63749;49.186;9.222;2023-07-29T07:24:01;7.75;;;2.53;;
75169;SDS011;63749;49.186;9.222;2023-07-29T07:26:27;3.70;;;2.30;;
75169;SDS011;63749;49.186;9.222;2023-07-29T07:28:52;4.03;;;2.30;;
75169;SDS011;63749;49.186;9.222;2023-07-29T07:31:17;4.67;;;2.23;;
75169;SDS011;63749;49.186;9.222;2023-07-29T07:33:43;3.90;;;2.20;;
75169;SDS011;63749;49.186;9.222;2023-07-29T07:36:08;4.63;;;2.30;;
75169;SDS011;63749;49.186;9.222;2023-07-29T07:38:33;4.13;;;2.50;;
75169;SDS011;63749;49.186;9.222;2023-07-29T07:40:59;5.73;;;2.30;;
75169;SDS011;63749;49.186;9.222;2023-07-29T07:43:24;5.43;;;2.30;;
75169;SDS011;63749;49.186;9.222;2023-07-29T07:45:50;4.77;;;2.33;;
75169;SDS011;63749;49.186;9.222;2023-07-29T07:48:16;4.47;;;2.30;;
75169;SDS011;63749;49.186;9.222;2023-07-29T07:50:45;4.25;;;2.35;;
75169;SDS011;63749;49.186;9.222;2023-07-29T07:53:10;4.47;;;2.13;;
75169;SDS011;63749;49.186;9.222;2023-07-29T07:55:35;4.23;;;2.20;;
75169;SDS011;63749;49.186;9.222;2023-07-29T07:58:01;4.90;;;2.57;;
75169;SDS011;63749;49.186;9.222;2023-07-29T08:00:26;4.60;;;2.50;;
75169;SDS011;63749;49.186;9.222;2023-07-29T08:02:51;5.00;;;2.03;;
75169;SDS011;63749;49.186;9.222;2023-07-29T08:05:17;4.23;;;2.13;;
75169;SDS011;63749;49.186;9.222;2023-07-29T08:07:43;4.75;;;2.15;;
75169;SDS011;63749;49.186;9.222;2023-07-29T08:10:08;3.93;;;2.10;;
75169;SDS011;63749;49.186;9.222;2023-07-29T08:12:34;4.83;;;2.07;;
75169;SDS011;63749;49.186;9.222;2023-07-29T08:14:59;3.93;;;2.20;;
75169;SDS011;63749;49.186;9.222;2023-07-29T08:17:24;5.80;;;2.17;;
75169;SDS011;63749;49.186;9.222;2023-07-29T08:19:50;3.37;;;2.00;;
75169;SDS011;63749;49.186;9.222;2023-07-29T08:22:15;3.58;;;1.83;;
75169;SDS011;63749;49.186;9.222;2023-07-29T08:24:42;4.63;;;2.03;;
75169;SDS011;63749;49.186;9.222;2023-07-29T08:27:07;3.67;;;1.80;;
75169;SDS011;63749;49.186;9.222;2023-07-29T08:29:33;5.97;;;2.10;;
75169;SDS011;63749;49.186;9.222;2023-07-29T08:31:58;3.33;;;2.20;;
75169;SDS011;63749;49.186;9.222;2023-07-29T08:34:23;2.87;;;1.80;;
75169;SDS011;63749;49.186;9.222;2023-07-29T08:36:49;2.90;;;1.80;;
75169;SDS011;63749;49.186;9.222;2023-07-29T08:39:14;3.33;;;1.90;;
75169;SDS011;63749;49.186;9.222;2023-07-29T08:42:00;3.37;;;2.10;;
75169;SDS011;63749;49.186;9.222;2023-07-29T08:44:30;6.40;;;2.08;;
75169;SDS011;63749;49.186;9.222;2023-07-29T08:47:00;3.80;;;1.80;;
75169;SDS011;63749;49.186;9.222;2023-07-29T08:49:26;5.43;;;1.83;;
75169;SDS011;63749;49.186;9.222;2023-07-29T08:51:53;2.67;;;1.88;;
75169;SDS011;63749;49.186;9.222;2023-07-29T08:54:18;3.27;;;1.60;;
75169;SDS011;63749;49.186;9.222;2023-07-29T08:56:44;2.20;;;1.50;;
75169;SDS011;63749;49.186;9.222;2023-07-29T08:59:10;2.95;;;1.70;;
75169;SDS011;63749;49.186;9.222;2023-07-29T09:01:40;2.85;;;1.70;;
75169;SDS011;63749;49.186;9.222;2023-07-29T09:04:06;2.22;;;1.70;;
75169;SDS011;63749;49.186;9.222;2023-07-29T09:06:32;3.10;;;1.70;;
75169;SDS011;63749;49.186;9.222;2023-07-29T09:08:58;5.90;;;1.90;;
75169;SDS011;63749;49.186;9.222;2023-07-29T09:11:24;5.93;;;2.20;;
75169;SDS011;63749;49.186;9.222;2023-07-29T09:13:50;4.32;;;2.08;;
75169;SDS011;63749;49.186;9.222;2023-07-29T09:16:16;3.73;;;1.90;;
75169;SDS011;63749;49.186;9.222;2023-07-29T09:18:41;1.92;;;1.70;;
75169;SDS011;63749;49.186;9.222;2023-07-29T09:21:07;5.87;;;1.77;;
75169;SDS011;63749;49.186;9.222;2023-07-29T09:23:40;2.28;;;1.88;;
75169;SDS011;63749;49.186;9.222;2023-07-29T09:26:07;4.90;;;2.00;;
75169;SDS011;63749;49.186;9.222;2023-07-29T09:28:33;3.17;;;1.97;;
75169;SDS011;63749;49.186;9.222;2023-07-29T09:31:00;3.78;;;1.73;;
75169;SDS011;63749;49.186;9.222;2023-07-29T09:33:26;3.63;;;1.80;;
75169;SDS011;63749;49.186;9.222;2023-07-29T09:35:52;4.30;;;1.80;;
75169;SDS011;63749;49.186;9.222;2023-07-29T09:38:17;2.47;;;1.90;;
75169;SDS011;63749;49.186;9.222;2023-07-29T09:40:43;2.50;;;1.70;;
75169;SDS011;63749;49.186;9.222;2023-07-29T09:43:10;3.92;;;1.80;;
75169;SDS011;63749;49.186;9.222;2023-07-29T09:45:36;4.63;;;1.90;;
75169;SDS011;63749;49.186;9.222;2023-07-29T09:48:03;3.03;;;1.80;;
75169;SDS011;63749;49.186;9.222;2023-07-29T09:50:30;6.82;;;2.20;;
75169;SDS011;63749;49.186;9.222;2023-07-29T09:52:57;2.75;;;1.67;;
75169;SDS011;63749;49.186;9.222;2023-07-29T09:55:25;2.03;;;1.63;;
75169;SDS011;63749;49.186;9.222;2023-07-29T09:57:58;2.67;;;1.67;;
75169;SDS011;63749;49.186;9.222;2023-07-29T10:00:27;2.78;;;1.50;;
75169;SDS011;63749;49.186;9.222;2023-07-29T10:02:57;3.67;;;1.85;;
75169;SDS011;63749;49.186;9.222;2023-07-29T10:05:25;3.75;;;1.90;;
75169;SDS011;63749;49.186;9.222;2023-07-29T10:07:52;3.25;;;1.90;;
75169;SDS011;63749;49.186;9.222;2023-07-29T10:10:19;3.60;;;1.77;;
75169;SDS011;63749;49.186;9.222;2023-07-29T10:12:45;3.15;;;1.80;;
75169;SDS011;63749;49.186;9.222;2023-07-29T10:15:11;2.63;;;1.60;;
75169;SDS011;63749;49.186;9.222;2023-07-29T10:17:37;2.63;;;1.80;;
75169;SDS011;63749;49.186;9.222;2023-07-29T10:20:04;2.35;;;1.90;;
75169;SDS011;63749;49.186;9.222;2023-07-29T10:22:33;2.00;;;1.80;;
75169;SDS011;63749;49.186;9.222;2023-07-29T10:25:05;1.95;;;1.55;;
75169;SDS011;63749;49.186;9.222;2023-07-29T10:27:43;3.97;;;1.70;;
75169;SDS011;63749;49.186;9.222;2023-07-29T10:30:12;2.65;;;1.80;;
75169;SDS011;63749;49.186;9.222;2023-07-29T10:32:38;2.75;;;1.80;;
75169;SDS011;63749;49.186;9.222;2023-07-29T10:35:06;2.00;;;1.80;;
75169;SDS011;63749;49.186;9.222;2023-07-29T10:37:32;2.00;;;1.77;;
75169;SDS011;63749;49.186;9.222;2023-07-29T10:39:58;3.08;;;1.85;;
75169;SDS011;63749;49.186;9.222;2023-07-29T10:42:23;3.07;;;1.70;;
75169;SDS011;63749;49.186;9.222;2023-07-29T10:44:49;2.73;;;1.70;;
75169;SDS011;63749;49.186;9.222;2023-07-29T10:47:20;2.53;;;1.90;;
75169;SDS011;63749;49.186;9.222;2023-07-29T10:49:49;2.58;;;1.67;;
75169;SDS011;63749;49.186;9.222;2023-07-29T10:52:17;2.13;;;1.70;;
75169;SDS011;63749;49.186;9.222;2023-07-29T10:54:55;2.55;;;1.80;;
75169;SDS011;63749;49.186;9.222;2023-07-29T10:57:39;3.40;;;1.87;;
75169;SDS011;63749;49.186;9.222;2023-07-29T11:00:07;2.70;;;1.85;;
75169;SDS011;63749;49.186;9.222;2023-07-29T11:02:36;2.00;;;1.80;;
75169;SDS011;63749;49.186;9.222;2023-07-29T11:05:06;2.47;;;2.00;;
75169;SDS011;63749;49.186;9.222;2023-07-29T11:07:44;2.95;;;2.10;;
75169;SDS011;63749;49.186;9.222;2023-07-29T11:10:11;2.80;;;2.20;;
75169;SDS011;63749;49.186;9.222;2023-07-29T11:15:16;2.13;;;1.92;;
75169;SDS011;63749;49.186;9.222;2023-07-29T11:17:56;3.53;;;2.00;;
75169;SDS011;63749;49.186;9.222;2023-07-29T11:20:23;2.10;;;1.90;;
75169;SDS011;63749;49.186;9.222;2023-07-29T11:22:56;2.28;;;1.80;;
75169;SDS011;63749;49.186;9.222;2023-07-29T11:25:23;2.33;;;1.80;;
75169;SDS011;63749;49.186;9.222;2023-07-29T11:27:53;1.95;;;1.70;;
75169;SDS011;63749;49.186;9.222;2023-07-29T11:30:20;2.70;;;1.70;;
75169;SDS011;63749;49.186;9.222;2023-07-29T11:32:45;2.10;;;1.85;;
75169;SDS011;63749;49.186;9.222;2023-07-29T11:37:41;1.83;;;1.50;;
75169;SDS011;63749;49.186;9.222;2023-07-29T11:40:13;3.00;;;1.50;;
75169;SDS011;63749;49.186;9.222;2023-07-29T11:42:43;3.35;;;1.80;;
75169;SDS011;63749;49.186;9.222;2023-07-29T11:45:09;2.22;;;1.75;;
75169;SDS011;63749;49.186;9.222;2023-07-29T11:47:35;3.90;;;1.75;;
75169;SDS011;63749;49.186;9.222;2023-07-29T11:50:02;2.33;;;1.52;;
75169;SDS011;63749;49.186;9.222;2023-07-29T11:52:35;3.20;;;1.67;;
75169;SDS011;63749;49.186;9.222;2023-07-29T11:55:02;2.83;;;1.60;;
75169;SDS011;63749;49.186;9.222;2023-07-29T11:57:30;2.47;;;1.55;;
75169;SDS011;63749;49.186;9.222;2023-07-29T11:59:56;2.53;;;1.80;;
75169;SDS011;63749;49.186;9.222;2023-07-29T12:02:22;2.57;;;1.70;;
75169;SDS011;63749;49.186;9.222;2023-07-29T12:04:49;2.10;;;1.90;;
75169;SDS011;63749;49.186;9.222;2023-07-29T12:07:16;2.67;;;1.70;;
75169;SDS011;63749;49.186;9.222;2023-07-29T12:09:42;3.08;;;1.77;;
75169;SDS011;63749;49.186;9.222;2023-07-29T12:12:08;2.78;;;1.83;;
75169;SDS011;63749;49.186;9.222;2023-07-29T12:14:33;2.00;;;1.70;;
75169;SDS011;63749;49.186;9.222;2023-07-29T12:17:00;2.60;;;1.60;;
75169;SDS011;63749;49.186;9.222;2023-07-29T12:19:36;2.92;;;1.88;;
75169;SDS011;63749;49.186;9.222;2023-07-29T12:22:03;4.03;;;2.00;;
75169;SDS011;63749;49.186;9.222;2023-07-29T12:24:31;2.10;;;1.90;;
75169;SDS011;63749;49.186;9.222;2023-07-29T12:26:58;2.00;;;1.80;;
75169;SDS011;63749;49.186;9.222;2023-07-29T12:29:24;5.25;;;2.00;;
75169;SDS011;63749;49.186;9.222;2023-07-29T12:31:56;6.22;;;2.10;;
75169;SDS011;63749;49.186;9.222;2023-07-29T12:34:24;2.15;;;1.90;;
75169;SDS011;63749;49.186;9.222;2023-07-29T12:36:51;6.93;;;2.20;;
75169;SDS011;63749;49.186;9.222;2023-07-29T12:41:43;3.95;;;2.10;;
75169;SDS011;63749;49.186;9.222;2023-07-29T12:44:08;4.50;;;2.40;;
75169;SDS011;63749;49.186;9.222;2023-07-29T12:46:33;3.27;;;1.93;;
75169;SDS011;63749;49.186;9.222;2023-07-29T12:48:59;4.10;;;2.33;;
75169;SDS011;63749;49.186;9.222;2023-07-29T12:51:24;3.50;;;2.20;;
75169;SDS011;63749;49.186;9.222;2023-07-29T12:53:49;2.53;;;2.33;;
75169;SDS011;63749;49.186;9.222;2023-07-29T12:56:14;3.10;;;2.70;;
75169;SDS011;63749;49.186;9.222;2023-07-29T12:58:40;2.57;;;2.37;;
75169;SDS011;63749;49.186;9.222;2023-07-29T13:01:05;3.73;;;2.70;;
75169;SDS011;63749;49.186;9.222;2023-07-29T13:03:30;2.40;;;2.20;;
75169;SDS011;63749;49.186;9.222;2023-07-29T13:05:56;3.30;;;2.50;;
75169;SDS011;63749;49.186;9.222;2023-07-29T13:08:21;3.10;;;2.60;;
75169;SDS011;63749;49.186;9.222;2023-07-29T13:10:48;2.97;;;2.67;;
75169;SDS011;63749;49.186;9.222;2023-07-29T13:13:13;3.10;;;2.80;;
75169;SDS011;63749;49.186;9.222;2023-07-29T13:15:38;4.20;;;2.37;;
75169;SDS011;63749;49.186;9.222;2023-07-29T13:18:04;2.60;;;2.40;;
75169;SDS011;63749;49.186;9.222;2023-07-29T13:20:29;2.40;;;2.20;;
75169;SDS011;63749;49.186;9.222;2023-07-29T13:22:55;4.10;;;1.90;;
75169;SDS011;63749;49.186;9.222;2023-07-29T13:25:20;2.93;;;1.70;;
75169;SDS011;63749;49.186;9.222;2023-07-29T13:27:45;2.43;;;2.20;;
75169;SDS011;63749;49.186;9.222;2023-07-29T13:30:11;2.40;;;2.20;;
75169;SDS011;63749;49.186;9.222;2023-07-29T13:32:36;3.53;;;2.10;;
75169;SDS011;63749;49.186;9.222;2023-07-29T13:35:01;2.00;;;1.80;;
75169;SDS011;63749;49.186;9.222;2023-07-29T13:37:27;4.90;;;2.50;;
75169;SDS011;63749;49.186;9.222;2023-07-29T13:39:52;2.87;;;2.00;;
75169;SDS011;63749;49.186;9.222;2023-07-29T13:42:17;3.27;;;2.20;;
75169;SDS011;63749;49.186;9.222;2023-07-29T13:44:43;2.20;;;2.00;;
75169;SDS011;63749;49.186;9.222;2023-07-29T13:47:08;3.97;;;2.63;;
75169;SDS011;63749;49.186;9.222;2023-07-29T13:49:33;4.10;;;2.90;;
75169;SDS011;63749;49.186;9.222;2023-07-29T13:51:59;3.80;;;2.97;;
75169;SDS011;63749;49.186;9.222;2023-07-29T13:54:24;3.20;;;2.90;;
75169;SDS011;63749;49.186;9.222;2023-07-29T13:56:49;4.20;;;2.90;;
75169;SDS011;63749;49.186;9.222;2023-07-29T13:59:15;4.13;;;2.80;;
75169;SDS011;63749;49.186;9.222;2023-07-29T14:01:40;2.80;;;2.60;;
75169;SDS011;63749;49.186;9.222;2023-07-29T14:04:05;4.20;;;2.20;;
75169;SDS011;63749;49.186;9.222;2023-07-29T14:06:31;2.30;;;1.90;;
75169;SDS011;63749;49.186;9.222;2023-07-29T14:08:57;4.05;;;1.92;;
75169;SDS011;63749;49.186;9.222;2023-07-29T14:11:22;4.47;;;2.10;;
75169;SDS011;63749;49.186;9.222;2023-07-29T14:13:48;2.75;;;2.25;;
75169;SDS011;63749;49.186;9.222;2023-07-29T14:16:13;3.70;;;2.30;;
75169;SDS011;63749;49.186;9.222;2023-07-29T14:18:38;3.93;;;3.20;;
75169;SDS011;63749;49.186;9.222;2023-07-29T14:21:04;3.03;;;2.50;;
75169;SDS011;63749;49.186;9.222;2023-07-29T14:23:29;3.43;;;3.10;;
75169;SDS011;63749;49.186;9.222;2023-07-29T14:25:55;3.40;;;3.10;;
75169;SDS011;63749;49.186;9.222;2023-07-29T14:28:20;3.07;;;2.77;;
75169;SDS011;63749;49.186;9.222;2023-07-29T14:30:46;3.37;;;3.07;;
75169;SDS011;63749;49.186;9.222;2023-07-29T14:33:11;3.50;;;3.20;;
75169;SDS011;63749;49.186;9.222;2023-07-29T14:35:36;4.20;;;3.33;;
75169;SDS011;63749;49.186;9.222;2023-07-29T14:38:02;4.00;;;3.00;;
75169;SDS011;63749;49.186;9.222;2023-07-29T14:40:27;3.90;;;3.50;;
75169;SDS011;63749;49.186;9.222;2023-07-29T14:42:52;3.47;;;3.17;;
75169;SDS011;63749;49.186;9.222;2023-07-29T14:45:18;3.70;;;3.40;;
75169;SDS011;63749;49.186;9.222;2023-07-29T14:47:43;3.03;;;2.67;;
75169;SDS011;63749;49.186;9.222;2023-07-29T14:50:09;2.30;;;2.10;;
75169;SDS011;63749;49.186;9.222;2023-07-29T14:52:34;3.67;;;3.37;;